Time;durP1;ratioP1;P1;durP2;ratioP2;P2;SDS_P1;SDS_P2;PMS_P1;PMS_P2;Temp;Humidity;BMP_temperature;BMP_pressure;BME280_temperature;BME280_humidity;BME280_pressure;Samples;Min_cycle;Max_cycle;Signal;HPM_P1;HPM_P2
2023/09/13 00:00:14;;;;;;;14.15;11.18;;;;;;;16.85;99.64;101129.25;5052468;28;20068;-77
2023/09/13 00:02:42;;;;;;;14.07;11.10;;;;;;;16.84;99.49;101134.97;5051100;28;20096;-76
2023/09/13 00:05:09;;;;;;;12.23;9.35;;;;;;;16.84;99.46;101140.38;5028520;28;20443;-77
2023/09/13 00:07:37;;;;;;;14.55;11.70;;;;;;;16.83;99.47;101145.00;5038459;28;20477;-76
2023/09/13 00:10:04;;;;;;;17.02;12.52;;;;;;;16.83;99.89;101144.19;5062802;28;20390;-76
2023/09/13 00:12:31;;;;;;;16.23;13.48;;;;;;;16.84;100.00;101145.81;5026081;28;20513;-77
2023/09/13 00:14:57;;;;;;;16.38;13.20;;;;;;;16.83;100.00;101145.00;5058004;28;20044;-77
2023/09/13 00:17:23;;;;;;;19.17;14.80;;;;;;;16.85;100.00;101136.56;5063657;28;20855;-76
2023/09/13 00:19:50;;;;;;;19.40;14.50;;;;;;;16.84;100.00;101140.38;5050094;28;20039;-76
2023/09/13 00:22:16;;;;;;;14.95;12.00;;;;;;;16.85;100.00;101140.09;5042712;28;20512;-75
2023/09/13 00:24:42;;;;;;;18.48;13.50;;;;;;;16.85;100.00;101131.16;5049475;28;20032;-76
2023/09/13 00:27:08;;;;;;;16.27;10.57;;;;;;;16.85;100.00;101125.75;5048292;28;20039;-76
2023/09/13 00:29:34;;;;;;;20.00;12.60;;;;;;;16.84;100.00;101130.38;5041266;28;20029;-79
2023/09/13 00:32:03;;;;;;;15.25;11.73;;;;;;;16.85;100.00;101123.06;5046359;28;20675;-76
2023/09/13 00:34:30;;;;;;;17.38;12.73;;;;;;;16.84;100.00;101124.97;5037761;28;20037;-77
2023/09/13 00:36:55;;;;;;;19.50;13.27;;;;;;;16.85;100.00;101125.75;5033546;28;20064;-75
2023/09/13 00:39:22;;;;;;;18.33;12.55;;;;;;;16.83;100.00;101117.94;5036351;28;20152;-76
2023/09/13 00:41:47;;;;;;;21.20;13.80;;;;;;;16.83;100.00;101115.25;5042389;28;20119;-76
2023/09/13 00:44:13;;;;;;;21.58;14.20;;;;;;;16.82;100.00;101108.25;5042920;28;20737;-76
2023/09/13 00:46:39;;;;;;;13.52;11.27;;;;;;;16.82;100.00;101105.53;5051889;28;20592;-75
2023/09/13 00:49:06;;;;;;;21.45;15.80;;;;;;;16.81;100.00;101106.66;5033996;28;20051;-76
2023/09/13 00:51:32;;;;;;;15.40;11.68;;;;;;;16.82;100.00;101110.16;5044572;28;20049;-76
2023/09/13 00:54:01;;;;;;;22.70;13.43;;;;;;;16.82;100.00;101113.66;5045225;28;20029;-77
2023/09/13 00:56:28;;;;;;;19.67;13.05;;;;;;;16.84;100.00;101118.75;5041156;28;20076;-77
2023/09/13 00:58:55;;;;;;;19.77;13.05;;;;;;;16.84;100.00;101121.47;5049043;28;20057;-76
2023/09/13 01:01:21;;;;;;;19.40;13.95;;;;;;;16.83;100.00;101122.56;5044826;28;20033;-75
2023/09/13 01:03:47;;;;;;;17.50;13.38;;;;;;;16.83;100.00;101114.44;5049297;28;20138;-75
2023/09/13 01:06:13;;;;;;;19.23;14.50;;;;;;;16.82;100.00;101115.56;5037572;28;20418;-76
2023/09/13 01:08:42;;;;;;;18.15;13.27;;;;;;;16.81;100.00;101116.66;5079570;22;20044;-81
2023/09/13 01:11:08;;;;;;;16.75;11.55;;;;;;;16.81;100.00;101112.06;5029440;28;20029;-81
2023/09/13 01:13:35;;;;;;;20.35;12.23;;;;;;;16.82;100.00;101120.97;5018546;28;20041;-81
2023/09/13 01:16:38;;;;;;;19.60;13.27;;;;;;;16.83;100.00;101123.38;5009386;28;20709;-81
2023/09/13 01:19:32;;;;;;;19.20;13.80;;;;;;;16.85;100.00;101121.16;5003013;28;20055;-80
2023/09/13 01:22:19;;;;;;;19.23;14.13;;;;;;;16.86;100.00;101111.13;5025316;28;20037;-78
2023/09/13 01:25:21;;;;;;;17.98;14.35;;;;;;;16.85;100.00;101107.63;5006936;28;20034;-79
2023/09/13 01:28:09;;;;;;;19.13;14.60;;;;;;;16.86;100.00;101103.81;5044677;28;20034;-81
2023/09/13 01:30:37;;;;;;;19.52;14.45;;;;;;;16.86;100.00;101097.59;5020380;28;20033;-80
2023/09/13 01:33:03;;;;;;;17.70;13.88;;;;;;;16.86;100.00;101097.59;5011335;28;20029;-81
2023/09/13 01:35:28;;;;;;;;;;;;;;;16.86;100.00;101105.72;4992451;28;20125;-81
2023/09/13 01:37:54;;;;;;;19.10;13.85;;;;;;;16.85;100.00;101110.31;5026611;28;19939;-82
2023/09/13 01:40:22;;;;;;;20.88;14.60;;;;;;;16.87;100.00;101102.72;5009178;28;20033;-81
2023/09/13 01:42:49;;;;;;;19.75;13.85;;;;;;;16.88;100.00;101111.66;5020473;28;20040;-79
2023/09/13 01:45:14;;;;;;;16.52;12.30;;;;;;;16.89;100.00;101110.53;5019680;28;20843;-82
2023/09/13 01:47:47;;;;;;;19.17;14.05;;;;;;;16.90;100.00;101112.13;5028154;28;20033;-78
2023/09/13 01:50:14;;;;;;;18.55;13.70;;;;;;;16.89;100.00;101110.53;5036043;28;20557;-81
2023/09/13 01:52:40;;;;;;;24.05;16.33;;;;;;;16.89;100.00;101118.66;5031286;28;20045;-81
2023/09/13 01:55:07;;;;;;;22.17;15.50;;;;;;;16.89;100.00;101116.75;4990384;28;20053;-82
2023/09/13 01:57:33;;;;;;;27.63;18.15;;;;;;;16.89;100.00;101111.34;5024503;28;20045;-79
2023/09/13 01:59:59;;;;;;;30.08;18.83;;;;;;;16.89;100.00;101105.13;5009188;28;20086;-81
2023/09/13 02:02:24;;;;;;;33.05;19.33;;;;;;;16.90;100.00;101106.72;5028204;28;20033;-79
2023/09/13 02:04:50;;;;;;;30.38;19.95;;;;;;;16.91;100.00;101102.91;5032702;28;20033;-79
2023/09/13 02:07:20;;;;;;;;;;;;;;;16.93;100.00;101100.69;5013642;28;20029;-78
2023/09/13 02:09:46;;;;;;;40.15;22.20;;;;;;;16.95;100.00;101098.50;5027486;28;19913;-79
2023/09/13 02:12:13;;;;;;;32.60;21.38;;;;;;;16.96;100.00;101092.00;5010112;28;20502;-78
2023/09/13 02:14:41;;;;;;;35.88;22.85;;;;;;;16.99;100.00;101082.44;5010204;28;20033;-80
2023/09/13 02:17:08;;;;;;;37.10;23.48;;;;;;;17.00;100.00;101084.88;5006472;28;20745;-79
2023/09/13 02:19:36;;;;;;;39.95;23.45;;;;;;;17.02;100.00;101088.06;5025244;28;20038;-78
2023/09/13 02:22:02;;;;;;;36.55;22.15;;;;;;;17.04;100.00;101075.03;5027755;28;20036;-81
2023/09/13 02:24:28;;;;;;;38.72;22.08;;;;;;;17.05;100.00;101076.63;5015861;28;20150;-79
2023/09/13 02:26:56;;;;;;;42.38;25.20;;;;;;;17.07;100.00;101079.03;5005221;28;20653;-79
2023/09/13 02:29:22;;;;;;;36.35;23.27;;;;;;;17.07;100.00;101073.59;5022400;28;20050;-82
2023/09/13 02:31:47;;;;;;;33.42;20.17;;;;;;;17.08;100.00;101070.63;4994710;28;20601;-81
2023/09/13 02:34:13;;;;;;;33.25;20.30;;;;;;;17.09;100.00;101066.81;5017317;28;20037;-79
2023/09/13 02:36:38;;;;;;;33.78;21.27;;;;;;;17.09;100.00;101066.81;5007500;28;20124;-81
2023/09/13 02:39:04;;;;;;;35.88;22.55;;;;;;;17.09;100.00;101061.41;5025611;28;20033;-81
2023/09/13 02:41:30;;;;;;;38.00;21.77;;;;;;;17.10;100.00;101057.56;5050642;28;20028;-80
2023/09/13 02:43:55;;;;;;;29.00;20.08;;;;;;;17.12;100.00;101059.97;5033316;28;20044;-82
2023/09/13 02:46:21;;;;;;;31.42;20.52;;;;;;;17.11;100.00;101064.59;4979184;28;20548;-80
2023/09/13 02:48:47;;;;;;;31.17;19.77;;;;;;;17.12;100.00;101066.19;5022043;28;20068;-78
2023/09/13 02:51:14;;;;;;;33.70;21.23;;;;;;;17.11;100.00;101064.59;4993115;28;20029;-81
2023/09/13 02:53:42;;;;;;;32.03;19.38;;;;;;;17.11;100.00;101053.75;5018954;28;20090;-80
2023/09/13 02:56:08;;;;;;;31.75;20.80;;;;;;;17.09;100.00;101058.69;5023330;28;20029;-80
2023/09/13 02:58:34;;;;;;;27.67;18.38;;;;;;;17.11;100.00;101052.97;5034332;28;20037;-80
2023/09/13 03:01:03;;;;;;;27.55;18.42;;;;;;;17.10;100.00;101054.88;5020708;28;20040;-81
2023/09/13 03:03:33;;;;;;;25.27;16.85;;;;;;;17.08;100.00;101053.59;5032823;28;20033;-83
2023/09/13 03:06:10;;;;;;;29.00;16.63;;;;;;;17.10;100.00;101054.06;5037699;28;20044;-84
2023/09/13 03:08:36;;;;;;;22.15;15.63;;;;;;;17.09;100.00;101055.97;5021189;28;20033;-82
2023/09/13 03:11:14;;;;;;;20.88;14.88;;;;;;;17.09;100.00;101058.69;5041933;28;20045;-82
2023/09/13 03:13:41;;;;;;;22.52;15.45;;;;;;;17.11;100.00;101053.75;5047073;28;20036;-81
2023/09/13 03:16:21;;;;;;;26.48;15.07;;;;;;;17.12;100.00;101049.16;4997212;28;20033;-82
2023/09/13 03:18:49;;;;;;;22.45;14.23;;;;;;;17.11;100.00;101053.75;5025347;28;20512;-81
2023/09/13 03:21:18;;;;;;;21.80;15.25;;;;;;;17.13;100.00;101045.34;5035103;28;20037;-83
2023/09/13 03:23:48;;;;;;;22.55;14.35;;;;;;;17.13;100.00;101043.41;5035753;28;20056;-84
2023/09/13 03:26:17;;;;;;;23.55;14.70;;;;;;;17.13;100.00;101040.72;5012353;28;20033;-81
2023/09/13 03:28:45;;;;;;;23.55;15.65;;;;;;;17.13;100.00;101046.13;5039966;28;20043;-83
2023/09/13 03:31:12;;;;;;;21.20;14.30;;;;;;;17.12;100.00;101039.13;5023677;28;20048;-81
2023/09/13 03:33:39;;;;;;;20.70;14.35;;;;;;;17.13;100.00;101037.22;5030376;28;20411;-82
2023/09/13 03:36:10;;;;;;;23.77;13.00;;;;;;;17.14;100.00;101034.22;5028130;28;20033;-83
2023/09/13 03:38:38;;;;;;;19.48;13.85;;;;;;;17.14;100.00;101036.13;5039988;28;20037;-80
2023/09/13 03:41:05;;;;;;;21.25;13.82;;;;;;;17.13;100.00;101024.47;5004526;28;20029;-81
2023/09/13 03:43:31;;;;;;;20.13;13.88;;;;;;;17.13;100.00;101029.09;5011895;28;20093;-84
2023/09/13 03:45:58;;;;;;;20.65;13.68;;;;;;;17.14;100.00;101026.09;5034660;28;20044;-82
2023/09/13 03:48:24;;;;;;;20.02;13.77;;;;;;;17.16;100.00;101026.59;5005595;28;20038;-82
2023/09/13 03:50:51;;;;;;;20.65;13.88;;;;;;;17.16;100.00;101029.28;5031881;28;20044;-80
2023/09/13 03:53:17;;;;;;;19.63;12.57;;;;;;;17.16;100.00;101029.28;5008950;28;20040;-83
2023/09/13 03:55:43;;;;;;;21.27;13.25;;;;;;;17.18;100.00;101029.78;5024954;28;20106;-81
2023/09/13 03:58:10;;;;;;;19.52;13.23;;;;;;;17.17;100.00;101027.38;4998194;28;20040;-79
2023/09/13 04:00:36;;;;;;;24.70;14.45;;;;;;;17.18;100.00;101027.06;5026090;28;20033;-83
2023/09/13 04:03:03;;;;;;;22.08;14.48;;;;;;;17.17;100.00;101020.06;5029150;28;20057;-80
2023/09/13 04:05:29;;;;;;;23.50;13.27;;;;;;;17.20;100.00;101034.88;5049286;28;20116;-81
2023/09/13 04:07:55;;;;;;;24.80;14.65;;;;;;;17.21;100.00;101028.38;5017807;28;20025;-83
2023/09/13 04:10:21;;;;;;;18.65;11.63;;;;;;;17.23;100.00;101033.47;5016743;28;20498;-79
2023/09/13 04:12:47;;;;;;;;;;;;;;;17.24;100.00;101030.47;5016507;28;20043;-81
2023/09/13 04:15:13;;;;;;;26.25;13.63;;;;;;;17.23;100.00;101028.88;5024451;28;19992;-81
2023/09/13 04:17:38;;;;;;;;;;;;;;;17.24;100.00;101030.47;5029318;28;20132;-82
2023/09/13 04:20:05;;;;;;;21.50;13.10;;;;;;;17.23;100.00;101034.28;5025555;28;19913;-83
2023/09/13 04:22:31;;;;;;;20.58;13.00;;;;;;;17.23;100.00;101026.16;4994626;28;20122;-81
2023/09/13 04:24:56;;;;;;;21.85;13.15;;;;;;;17.23;100.00;101039.69;5012144;28;20495;-82
2023/09/13 04:27:23;;;;;;;24.90;14.30;;;;;;;17.24;100.00;101035.09;5017049;28;20033;-80
2023/09/13 04:29:49;;;;;;;22.67;13.70;;;;;;;17.23;100.00;101044.31;5005918;28;20040;-81
2023/09/13 04:32:15;;;;;;;25.65;13.60;;;;;;;17.24;100.00;101040.50;5026407;28;20029;-84
2023/09/13 04:34:41;;;;;;;29.98;16.73;;;;;;;17.25;100.00;101039.38;5028194;28;20068;-82
2023/09/13 04:37:07;;;;;;;21.05;13.02;;;;;;;17.25;100.00;101042.09;5015319;28;20061;-83
2023/09/13 04:39:33;;;;;;;20.88;13.23;;;;;;;17.25;100.00;101050.22;5048601;28;20056;-84
2023/09/13 04:41:59;;;;;;;20.48;12.68;;;;;;;17.25;100.00;101053.72;5015386;28;20112;-83
2023/09/13 04:44:26;;;;;;;18.38;11.48;;;;;;;17.27;100.00;101056.91;5022387;28;20483;-85
2023/09/13 04:46:52;;;;;;;16.23;10.88;;;;;;;17.27;100.00;101061.53;5035052;28;20087;-80
2023/09/13 04:49:19;;;;;;;14.18;9.35;;;;;;;17.23;100.00;101060.56;5024074;28;20085;-85
2023/09/13 04:51:44;;;;;;;14.85;7.80;;;;;;;17.23;100.00;101065.97;5008985;28;20029;-80
2023/09/13 04:54:10;;;;;;;14.30;8.82;;;;;;;17.21;100.00;101068.19;5023059;28;20033;-81
2023/09/13 04:56:36;;;;;;;10.25;7.22;;;;;;;17.20;100.00;101072.78;5020587;28;20064;-80
2023/09/13 04:59:05;;;;;;;10.07;6.65;;;;;;;17.21;100.00;101073.59;5027748;28;20495;-79
2023/09/13 05:01:31;;;;;;;9.25;6.43;;;;;;;17.22;100.00;101080.59;5010100;28;20037;-79
2023/09/13 05:03:58;;;;;;;9.00;5.22;;;;;;;17.16;100.00;101082.63;5019810;28;20053;-80
2023/09/13 05:06:24;;;;;;;5.75;3.83;;;;;;;17.11;100.00;101075.41;5020914;28;20790;-80
2023/09/13 05:08:52;;;;;;;6.10;3.60;;;;;;;17.09;100.00;101088.44;5026106;28;20033;-81
2023/09/13 05:11:18;;;;;;;4.97;3.20;;;;;;;17.07;100.00;101090.66;5023340;28;20041;-79
2023/09/13 05:13:47;;;;;;;7.00;4.05;;;;;;;17.04;100.00;101096.69;5020781;28;20084;-80
2023/09/13 05:16:19;;;;;;;3.70;2.58;;;;;;;17.01;100.00;101108.13;5025424;28;20521;-81
2023/09/13 05:18:45;;;;;;;4.30;3.20;;;;;;;16.93;100.00;101108.81;5023528;28;20740;-81
2023/09/13 05:21:10;;;;;;;7.60;2.80;;;;;;;16.90;100.00;101112.13;5022234;28;20044;-81
2023/09/13 05:23:36;;;;;;;3.22;2.50;;;;;;;16.85;100.00;101114.94;5007818;28;20033;-79
2023/09/13 05:26:02;;;;;;;6.82;2.70;;;;;;;16.79;100.00;101116.16;5016093;28;20087;-80
2023/09/13 05:28:33;;;;;;;3.20;2.08;;;;;;;16.75;100.00;101117.88;5022697;28;20044;-80
2023/09/13 05:31:00;;;;;;;2.60;1.92;;;;;;;16.74;100.00;101124.38;4992422;28;20094;-81
2023/09/13 05:33:26;;;;;;;6.25;2.65;;;;;;;16.63;100.00;101129.16;5020078;28;20116;-81
2023/09/13 05:35:52;;;;;;;4.25;1.92;;;;;;;16.60;100.00;101125.16;5017104;28;20049;-80
2023/09/13 05:38:18;;;;;;;;;;;;;;;16.60;100.00;101130.56;5023947;28;20044;-82
2023/09/13 05:40:43;;;;;;;3.60;2.30;;;;;;;16.48;100.00;101127.56;5010042;28;20359;-81
2023/09/13 05:43:10;;;;;;;3.47;1.98;;;;;;;16.46;100.00;101127.06;5027844;28;20040;-79
2023/09/13 05:45:35;;;;;;;7.63;2.15;;;;;;;16.46;100.00;101127.06;5012915;28;20087;-80
2023/09/13 05:48:02;;;;;;;3.33;1.90;;;;;;;16.41;100.00;101124.44;5033057;28;20063;-79
2023/09/13 05:50:27;;;;;;;7.40;2.10;;;;;;;16.42;100.00;101139.56;5048920;28;20042;-81
2023/09/13 05:52:53;;;;;;;;;;;;;;;16.37;100.00;101137.75;5033985;28;20040;-79
2023/09/13 05:55:20;;;;;;;3.38;1.90;;;;;;;16.34;100.00;101126.75;5018631;28;19923;-80
2023/09/13 05:57:46;;;;;;;;;;;;;;;16.34;100.00;101132.94;5011424;28;20030;-79
2023/09/13 06:00:13;;;;;;;2.55;1.73;;;;;;;16.33;100.00;101133.25;5030329;28;19916;-80
2023/09/13 06:02:39;;;;;;;7.20;2.17;;;;;;;16.29;100.00;101146.53;5026242;28;20033;-79
2023/09/13 06:05:06;;;;;;;5.38;1.88;;;;;;;16.30;100.00;101147.34;4997626;28;20770;-80
2023/09/13 06:07:31;;;;;;;4.03;1.80;;;;;;;16.26;100.00;101151.75;5032628;28;20103;-80
2023/09/13 06:09:58;;;;;;;;;;;;;;;16.20;100.00;101148.34;5025674;28;20045;-81
2023/09/13 06:12:25;;;;;;;4.55;1.90;;;;;;;16.20;100.00;101155.66;5007034;28;19999;-78
2023/09/13 06:14:53;;;;;;;2.60;1.60;;;;;;;16.20;100.00;101158.34;5025060;28;20029;-81
2023/09/13 06:17:19;;;;;;;4.75;1.60;;;;;;;16.19;100.00;101167.53;5028253;28;20029;-79
2023/09/13 06:19:45;;;;;;;2.88;1.50;;;;;;;16.14;100.00;101170.34;5027602;28;20033;-81
2023/09/13 06:22:10;;;;;;;2.47;1.33;;;;;;;16.13;100.00;101168.75;5035547;28;20025;-79
2023/09/13 06:24:36;;;;;;;2.58;1.30;;;;;;;16.15;100.00;101169.25;5017180;28;20115;-83
2023/09/13 06:27:02;;;;;;;;;;;;;;;16.10;100.00;101170.13;5003927;28;20473;-82
2023/09/13 06:29:27;;;;;;;3.97;1.10;;;;;;;16.07;100.00;101165.31;5040024;28;19913;-82
2023/09/13 06:31:54;;;;;;;;;;;;;;;16.09;100.00;101174.72;5016569;28;20032;-82
2023/09/13 06:34:19;;;;;;;6.07;1.33;;;;;;;16.06;100.00;101175.31;5031023;28;19916;-81
2023/09/13 06:36:46;;;;;;;;;;;;;;;16.01;100.00;101178.09;5024180;28;20029;-82
2023/09/13 06:39:12;;;;;;;4.45;1.40;;;;;;;15.96;100.00;101170.06;5035478;28;19921;-80
2023/09/13 06:41:37;;;;;;;;;;;;;;;15.96;100.00;101172.78;5025666;28;20040;-80
2023/09/13 06:44:08;;;;;;;3.58;1.10;;;;;;;15.94;100.00;101177.69;5027963;28;19928;-81
2023/09/13 06:46:37;;;;;;;2.00;0.85;;;;;;;15.80;100.00;101172.22;5023856;28;20095;-79
2023/09/13 06:49:03;;;;;;;3.92;1.10;;;;;;;15.78;100.00;101179.81;5024860;28;20039;-80
2023/09/13 06:51:29;;;;;;;3.67;1.00;;;;;;;15.75;100.00;101185.78;5024315;28;20418;-80
2023/09/13 06:53:55;;;;;;;2.40;1.00;;;;;;;15.76;100.00;101192.78;5030834;28;20120;-80
2023/09/13 06:56:21;;;;;;;;;;;;;;;15.75;100.00;101190.41;5026269;28;20601;-79
2023/09/13 06:58:47;;;;;;;3.22;1.35;;;;;;;15.70;100.00;101193.97;5016528;28;20300;-82
2023/09/13 07:01:13;;;;;;;;;;;;;;;15.64;100.00;101210.53;5022235;28;20474;-78
2023/09/13 07:03:39;;;;;;;1.42;0.68;;;;;;;15.59;100.00;101208.69;5021935;28;19921;-80
2023/09/13 07:06:05;;;;;;;5.78;0.85;;;;;;;15.53;100.00;101210.66;5020562;28;20030;-79
2023/09/13 07:08:31;;;;;;;2.05;0.80;;;;;;;15.53;100.00;101218.75;5029620;28;20029;-79
2023/09/13 07:10:57;;;;;;;;;;;;;;;15.47;100.00;101217.22;5024805;28;20124;-77
2023/09/13 07:13:22;;;;;;;2.65;0.80;;;;;;;15.46;100.00;101231.81;5019327;28;20420;-80
2023/09/13 07:15:48;;;;;;;;;;;;;;;15.45;100.00;101230.22;5022021;28;20443;-79
2023/09/13 07:18:14;;;;;;;4.38;1.20;;;;;;;15.42;100.00;101224.56;5026895;28;19916;-79
2023/09/13 07:20:40;;;;;;;3.63;1.60;;;;;;;15.44;100.00;101228.56;5025982;28;20071;-80
2023/09/13 07:23:06;;;;;;;;;;;;;;;15.42;100.00;101238.88;5037736;28;20056;-81
2023/09/13 07:25:31;;;;;;;5.90;1.77;;;;;;;15.36;100.00;101236.53;5027129;28;19921;-80
2023/09/13 07:27:57;;;;;;;;;;;;;;;15.29;100.00;101242.28;5026830;28;20107;-80
2023/09/13 07:30:23;;;;;;;4.93;1.58;;;;;;;15.24;100.00;101239.63;5024745;28;19917;-79
2023/09/13 07:32:49;;;;;;;;;;;;;;;15.20;100.00;101250.22;5023956;28;20040;-80
2023/09/13 07:35:15;;;;;;;6.10;2.08;;;;;;;15.15;100.00;101246.75;5024970;28;19917;-79
2023/09/13 07:37:40;;;;;;;;;;;;;;;15.14;100.00;101254.06;5006003;28;20114;-80
2023/09/13 07:40:07;;;;;;;8.13;2.13;;;;;;;15.10;100.00;101254.91;5006562;28;19913;-82
2023/09/13 07:42:32;;;;;;;6.80;2.05;;;;;;;15.05;100.00;101255.00;5022961;28;20050;-81
2023/09/13 07:44:59;;;;;;;;;;;;;;;15.03;100.00;101261.44;5018673;28;20033;-78
2023/09/13 07:47:26;;;;;;;5.10;2.05;;;;;;;14.99;100.00;101271.22;5021717;28;19923;-77
2023/09/13 07:49:51;;;;;;;6.78;2.50;;;;;;;15.02;100.00;101265.22;5004748;28;20494;-79
2023/09/13 07:52:17;;;;;;;;;;;;;;;15.02;100.00;101265.22;5022687;28;20033;-78
2023/09/13 07:54:44;;;;;;;4.82;2.72;;;;;;;15.05;100.00;101268.47;5007487;28;19926;-79
2023/09/13 07:57:10;;;;;;;8.15;2.40;;;;;;;15.09;100.00;101277.59;5022895;28;20039;-79
2023/09/13 07:59:36;;;;;;;;;;;;;;;15.11;100.00;101272.72;5022963;28;20562;-78
2023/09/13 08:02:03;;;;;;;8.13;2.22;;;;;;;15.14;100.00;101282.94;5024103;28;20511;-78
2023/09/13 08:04:29;;;;;;;6.20;2.15;;;;;;;15.14;100.00;101288.31;5018696;28;20053;-80
2023/09/13 08:06:54;;;;;;;;;;;;;;;15.17;100.00;101302.06;5025485;28;20049;-77
2023/09/13 08:09:20;;;;;;;7.82;2.45;;;;;;;15.11;100.00;101297.00;5023306;28;19917;-78
2023/09/13 08:11:47;;;;;;;;;;;;;;;15.06;100.00;101303.25;4999098;28;20115;-77
2023/09/13 08:14:14;;;;;;;8.00;2.10;;;;;;;15.04;99.94;101310.81;5026593;28;19975;-80
2023/09/13 08:16:39;;;;;;;;;;;;;;;15.07;99.83;101314.84;5025639;28;20061;-79
2023/09/13 08:19:08;;;;;;;5.47;2.30;;;;;;;15.12;100.00;101318.28;5001576;28;19917;-79
2023/09/13 08:21:33;;;;;;;8.82;2.25;;;;;;;15.09;100.00;101320.75;5004225;28;20049;-78
2023/09/13 08:23:59;;;;;;;;;;;;;;;15.11;100.00;101319.38;5022505;28;20445;-78
2023/09/13 08:26:25;;;;;;;6.10;2.00;;;;;;;15.13;100.00;101330.69;5025362;28;19949;-81
2023/09/13 08:28:51;;;;;;;;;;;;;;;15.19;100.00;101340.34;5024318;28;20057;-79
2023/09/13 08:31:17;;;;;;;7.95;2.50;;;;;;;15.18;100.00;101338.72;5021429;28;19932;-79
2023/09/13 08:33:43;;;;;;;8.05;2.38;;;;;;;15.19;100.00;101331.44;5018619;28;20033;-79
2023/09/13 08:36:09;;;;;;;;;;;;;;;15.26;100.00;101334.59;5027474;28;20033;-80
2023/09/13 08:38:34;;;;;;;6.18;2.20;;;;;;;15.32;100.00;101346.16;5014974;28;19923;-79
2023/09/13 08:41:02;;;;;;;7.60;2.03;;;;;;;15.31;100.00;101350.75;5030134;28;20043;-79
2023/09/13 08:43:28;;;;;;;9.05;2.47;;;;;;;15.30;100.00;101357.22;4992865;28;20104;-78
2023/09/13 08:45:54;;;;;;;;;;;;;;;15.29;99.26;101358.31;5012445;28;20754;-80
2023/09/13 08:48:21;;;;;;;3.15;1.73;;;;;;;15.35;99.82;101365.25;5021776;28;20274;-80
2023/09/13 08:50:48;;;;;;;5.68;2.25;;;;;;;15.39;99.55;101365.50;5004956;28;20112;-80
2023/09/13 08:53:16;;;;;;;8.15;2.20;;;;;;;15.40;99.09;101370.59;5022088;28;20029;-79
2023/09/13 08:55:43;;;;;;;8.90;2.25;;;;;;;15.38;99.28;101369.31;5026661;28;20030;-79
2023/09/13 08:58:09;;;;;;;11.48;2.20;;;;;;;15.38;98.46;101372.00;4991545;28;20048;-78
2023/09/13 09:00:37;;;;;;;;;;;;;;;15.44;99.29;101368.94;5026659;28;20033;-78
2023/09/13 09:03:05;;;;;;;5.13;1.63;;;;;;;15.40;99.22;101381.41;5017014;28;19920;-78
2023/09/13 09:05:32;;;;;;;9.23;2.15;;;;;;;15.40;98.94;101381.41;5005016;28;20069;-80
2023/09/13 09:07:59;;;;;;;6.82;2.30;;;;;;;15.39;99.46;101390.59;5008518;28;20029;-77
2023/09/13 09:10:25;;;;;;;10.98;2.10;;;;;;;15.38;98.60;101391.69;5021635;28;20120;-79
2023/09/13 09:12:55;;;;;;;;;;;;;;;15.37;98.12;101395.44;5022433;28;20112;-79
2023/09/13 09:15:23;;;;;;;7.28;1.70;;;;;;;15.43;98.61;101388.91;5018285;28;19921;-80
2023/09/13 09:17:51;;;;;;;5.93;2.58;;;;;;;15.35;97.54;101392.25;4991205;28;20033;-79
2023/09/13 09:20:19;;;;;;;6.97;1.83;;;;;;;15.36;97.69;101393.84;5014778;28;20033;-80
2023/09/13 09:22:45;;;;;;;8.40;2.42;;;;;;;15.38;98.02;101393.59;5006095;28;20421;-79
2023/09/13 09:25:11;;;;;;;;;;;;;;;15.43;98.77;101386.22;5004978;28;20101;-78
2023/09/13 09:27:38;;;;;;;7.15;1.92;;;;;;;15.48;99.19;101386.16;5036754;28;20386;-79
2023/09/13 09:30:06;;;;;;;9.65;2.50;;;;;;;15.50;97.84;101383.97;5019522;28;20037;-78
2023/09/13 09:32:37;;;;;;;8.10;2.28;;;;;;;15.55;98.33;101386.63;5022198;28;20040;-76
2023/09/13 09:35:08;;;;;;;8.23;2.05;;;;;;;15.52;97.78;101398.00;5022934;28;20107;-78
2023/09/13 09:37:35;;;;;;;9.10;2.05;;;;;;;15.51;97.43;101406.38;5038960;28;20042;-78
2023/09/13 09:40:09;;;;;;;11.77;2.20;;;;;;;15.50;97.17;101407.47;5023526;28;20044;-77
2023/09/13 09:42:36;;;;;;;6.60;2.22;;;;;;;15.53;97.76;101413.13;5024759;28;20128;-79
2023/09/13 09:45:03;;;;;;;7.55;2.00;;;;;;;15.54;98.19;101412.03;5028243;28;20047;-78
2023/09/13 09:47:28;;;;;;;;;;;;;;;15.51;97.96;101419.88;5007444;28;20045;-76
2023/09/13 09:49:54;;;;;;;6.53;2.28;;;;;;;15.49;97.81;101422.06;5035037;28;19917;-80
2023/09/13 09:52:19;;;;;;;;;;;;;;;15.46;97.69;101420.75;5008880;28;20739;-80
2023/09/13 09:54:50;;;;;;;7.03;2.15;;;;;;;15.49;98.19;101430.97;5019438;28;19959;-77
2023/09/13 09:57:23;;;;;;;7.68;2.40;;;;;;;15.50;98.08;101431.75;5022236;28;20132;-77
2023/09/13 09:59:49;;;;;;;6.82;2.35;;;;;;;15.48;97.26;101429.34;5024651;28;20487;-78
2023/09/13 10:02:15;;;;;;;12.65;2.47;;;;;;;15.50;97.88;101437.97;5025233;28;20406;-78
2023/09/13 10:04:45;;;;;;;;;;;;;;;15.44;98.01;101438.31;5007052;28;20029;-79
2023/09/13 10:07:10;;;;;;;6.15;2.03;;;;;;;15.43;97.87;101442.91;5019818;28;19913;-79
2023/09/13 10:09:38;;;;;;;11.07;2.22;;;;;;;15.41;97.57;101436.19;5021033;28;20056;-80
2023/09/13 10:12:04;;;;;;;7.35;2.75;;;;;;;15.43;97.91;101437.50;5013180;28;20392;-77
2023/09/13 10:14:32;;;;;;;7.22;2.05;;;;;;;15.40;98.01;101440.78;5020711;28;20034;-79
2023/09/13 10:16:59;;;;;;;12.20;2.95;;;;;;;15.38;97.41;101445.66;5007035;28;20029;-79
2023/09/13 10:19:29;;;;;;;9.60;2.10;;;;;;;15.44;98.76;101439.09;5021700;28;20068;-77
2023/09/13 10:21:56;;;;;;;6.68;2.78;;;;;;;15.47;97.97;101443.94;5023331;28;20044;-81
2023/09/13 10:24:24;;;;;;;9.20;2.80;;;;;;;15.47;97.58;101443.16;5011858;28;20058;-81
2023/09/13 10:26:53;;;;;;;5.13;2.47;;;;;;;15.49;97.34;101454.44;5007604;28;20037;-80
2023/09/13 10:29:34;;;;;;;9.02;2.80;;;;;;;15.53;97.75;101447.41;5007574;28;20076;-81
2023/09/13 10:32:02;;;;;;;8.48;3.15;;;;;;;15.52;97.45;101457.41;4989585;28;20449;-78
2023/09/13 10:34:33;;;;;;;6.47;2.22;;;;;;;15.49;96.89;101455.25;5004983;28;20037;-79
2023/09/13 10:37:09;;;;;;;10.25;3.05;;;;;;;15.46;95.93;101458.53;5007274;28;20033;-78
2023/09/13 10:39:50;;;;;;;10.95;2.42;;;;;;;15.49;96.46;101460.66;5020832;28;20562;-80
2023/09/13 10:42:15;;;;;;;10.10;2.78;;;;;;;15.47;96.47;101460.16;5005179;28;20036;-79
2023/09/13 10:44:42;;;;;;;;;;;;;;;15.48;96.94;101469.84;5018924;28;20034;-77
2023/09/13 10:47:08;;;;;;;9.82;2.88;;;;;;;15.44;97.42;101460.69;5006296;28;21972;-77
2023/09/13 10:49:36;;;;;;;9.80;3.00;;;;;;;15.43;97.56;101469.09;5017659;28;20034;-80
2023/09/13 10:52:03;;;;;;;6.63;2.88;;;;;;;15.40;97.22;101470.47;5023714;28;20037;-79
2023/09/13 10:54:30;;;;;;;;;;;;;;;15.41;97.69;101477.47;5022175;28;20046;-78
2023/09/13 10:56:56;;;;;;;9.23;2.95;;;;;;;15.37;97.03;101473.72;5022886;28;19917;-79
2023/09/13 10:59:23;;;;;;;;;;;;;;;15.41;97.27;101487.47;5006676;28;20053;-79
2023/09/13 11:01:49;;;;;;;8.60;3.00;;;;;;;15.39;97.39;101492.34;5011421;28;19913;-82
2023/09/13 11:04:17;;;;;;;9.15;2.70;;;;;;;15.33;97.12;101496.19;5024797;28;20144;-81
2023/09/13 11:06:44;;;;;;;8.63;2.88;;;;;;;15.28;97.34;101495.13;5008562;28;20110;-81
2023/09/13 11:09:17;;;;;;;12.32;3.35;;;;;;;15.30;97.87;101497.53;5023328;28;20312;-81
2023/09/13 11:11:47;;;;;;;9.50;3.13;;;;;;;15.25;98.03;101516.50;5022209;28;20037;-79
2023/09/13 11:14:19;;;;;;;7.15;3.08;;;;;;;15.27;98.58;101520.50;5020684;28;20029;-80
2023/09/13 11:16:48;;;;;;;7.45;2.92;;;;;;;15.33;98.73;101518.56;5025481;28;20041;-77
2023/09/13 11:19:17;;;;;;;9.82;3.20;;;;;;;15.32;98.52;101516.16;5020306;28;20036;-77
2023/09/13 11:21:51;;;;;;;9.88;3.20;;;;;;;15.35;99.28;101519.09;5023581;28;20503;-79